createdAt,value
2023-01-10T00:03:56.937Z,3.03
2023-01-10T00:08:58.505Z,1.80
2023-01-10T00:13:59.984Z,2.03
2023-01-10T00:19:01.458Z,2.20
2023-01-10T00:24:23.388Z,2.33
2023-01-10T00:29:29.069Z,2.67
2023-01-10T00:34:32.586Z,3.45
2023-01-10T00:39:34.043Z,2.50
2023-01-10T00:44:35.528Z,2.42
2023-01-10T00:49:37.008Z,2.58
2023-01-10T00:54:38.521Z,1.88
2023-01-10T00:59:39.991Z,1.85
2023-01-10T01:04:41.465Z,1.90
2023-01-10T01:10:01.307Z,1.83
2023-01-10T01:15:02.780Z,1.33
2023-01-10T01:20:04.573Z,2.28
2023-01-10T01:25:06.248Z,1.70
2023-01-10T01:30:09.700Z,1.48
2023-01-10T01:35:12.764Z,1.08
2023-01-10T01:45:36.415Z,1.40
2023-01-10T01:51:05.138Z,1.58
2023-01-10T01:56:27.808Z,1.75
2023-01-10T02:01:29.854Z,1.80
2023-01-10T02:06:31.435Z,2.17
2023-01-10T02:11:32.911Z,1.92
2023-01-10T02:16:34.382Z,1.85
2023-01-10T02:21:47.841Z,1.83
2023-01-10T02:27:35.853Z,2.47
2023-01-10T02:32:57.012Z,1.80
2023-01-10T02:38:20.626Z,2.25
2023-01-10T02:43:24.205Z,2.03
2023-01-10T02:48:25.687Z,2.40
2023-01-10T02:53:28.604Z,2.40
2023-01-10T02:58:48.522Z,1.75
2023-01-10T03:03:56.731Z,2.63
2023-01-10T03:09:19.613Z,1.58
2023-01-10T03:14:22.957Z,1.65
2023-01-10T03:19:25.088Z,2.38
2023-01-10T03:24:41.842Z,2.97
2023-01-10T03:29:55.857Z,2.47
2023-01-10T03:34:58.220Z,2.47
2023-01-10T03:40:30.325Z,2.92
2023-01-10T03:45:40.208Z,2.85
2023-01-10T03:50:42.501Z,2.65
2023-01-10T03:55:43.995Z,2.58
2023-01-10T04:00:45.495Z,2.55
2023-01-10T04:05:46.972Z,3.03
2023-01-10T04:10:49.270Z,3.17
2023-01-10T04:15:51.461Z,3.72
2023-01-10T04:20:52.943Z,3.40
2023-01-10T04:25:54.430Z,3.45
2023-01-10T04:30:55.921Z,3.35
2023-01-10T04:35:57.392Z,3.08
2023-01-10T04:40:58.903Z,3.35
2023-01-10T04:46:00.403Z,3.45
2023-01-10T04:51:01.911Z,2.90
2023-01-10T04:56:07.454Z,2.75
2023-01-10T05:01:16.463Z,4.35
2023-01-10T05:06:18.053Z,3.42
2023-01-10T05:11:19.519Z,3.28
2023-01-10T05:16:21.071Z,4.18
2023-01-10T05:21:22.579Z,2.60
2023-01-10T05:26:24.077Z,3.00
2023-01-10T05:31:25.591Z,2.55
2023-01-10T05:36:27.088Z,2.28
2023-01-10T05:41:28.543Z,2.70
2023-01-10T05:46:30.140Z,2.40
2023-01-10T05:51:31.618Z,2.22
2023-01-10T05:56:33.104Z,2.90
2023-01-10T06:01:34.650Z,2.80
2023-01-10T06:06:36.165Z,2.20
2023-01-10T06:11:38.869Z,2.50
2023-01-10T06:16:41.722Z,2.55
2023-01-10T06:21:43.253Z,2.38
2023-01-10T06:26:44.789Z,2.17
2023-01-10T06:31:46.282Z,2.42
2023-01-10T06:36:47.755Z,2.38
2023-01-10T06:41:49.212Z,2.70
2023-01-10T06:46:50.666Z,2.15
2023-01-10T06:51:52.146Z,2.30
2023-01-10T06:56:53.617Z,2.63
2023-01-10T07:01:55.220Z,2.72
2023-01-10T07:06:56.763Z,2.65
2023-01-10T07:11:58.257Z,2.08
2023-01-10T07:16:59.721Z,2.30
2023-01-10T07:22:01.211Z,2.20
2023-01-10T07:27:02.678Z,2.15
2023-01-10T07:32:04.827Z,3.20
2023-01-10T07:37:06.281Z,2.10
2023-01-10T07:42:09.282Z,2.40
2023-01-10T07:47:11.020Z,2.45
2023-01-10T07:52:12.512Z,2.58
2023-01-10T07:57:14.338Z,2.70
2023-01-10T08:02:15.847Z,3.83
2023-01-10T08:07:17.390Z,3.28
2023-01-10T08:12:18.855Z,2.38
2023-01-10T08:17:20.329Z,2.53
2023-01-10T08:22:21.802Z,2.85
2023-01-10T08:27:23.270Z,3.63
2023-01-10T08:32:24.808Z,2.65
2023-01-10T08:37:26.330Z,3.00
2023-01-10T08:42:27.797Z,3.78
2023-01-10T08:47:29.509Z,2.63
2023-01-10T08:52:30.994Z,3.05
2023-01-10T08:57:32.486Z,2.60
2023-01-10T09:02:34.028Z,3.55
2023-01-10T09:07:35.591Z,2.95
2023-01-10T09:12:54.835Z,2.72
2023-01-10T09:17:57.079Z,3.05
2023-01-10T09:22:59.572Z,3.10
2023-01-10T09:28:01.525Z,2.28
2023-01-10T09:33:03.074Z,3.50
2023-01-10T09:38:05.269Z,2.78
2023-01-10T09:43:31.812Z,2.75
2023-01-10T09:48:49.689Z,3.15
2023-01-10T09:53:53.590Z,3.33
2023-01-10T09:58:55.499Z,2.97
2023-01-10T10:04:15.924Z,3.15
2023-01-10T10:09:23.713Z,3.22
2023-01-10T10:14:46.257Z,2.72
2023-01-10T10:19:55.920Z,3.45
2023-01-10T10:25:05.965Z,3.15
2023-01-10T10:30:18.097Z,2.97
2023-01-10T10:35:30.465Z,4.05
2023-01-10T10:40:33.684Z,2.22
2023-01-10T10:45:40.520Z,4.53
2023-01-10T10:51:08.090Z,4.22
2023-01-10T10:56:13.081Z,3.72
2023-01-10T11:01:14.803Z,3.65
2023-01-10T11:06:16.416Z,4.13
2023-01-10T11:11:34.012Z,4.18
2023-01-10T11:16:43.629Z,3.85
2023-01-10T11:21:47.199Z,4.82
2023-01-10T11:26:48.707Z,4.30
2023-01-10T11:31:50.236Z,4.55
2023-01-10T11:36:52.976Z,3.90
2023-01-10T11:41:55.961Z,4.20
2023-01-10T11:52:03.454Z,3.50
2023-01-10T11:57:29.225Z,4.65
2023-01-10T12:02:33.441Z,3.95
2023-01-10T12:08:06.018Z,3.97
2023-01-10T12:13:14.594Z,2.88
2023-01-10T12:18:19.359Z,3.72
2023-01-10T12:23:21.909Z,2.80
2023-01-10T12:28:25.337Z,2.58
2023-01-10T12:33:27.896Z,2.85
2023-01-10T12:39:06.241Z,3.13
2023-01-10T12:44:14.924Z,3.47
2023-01-10T12:49:25.300Z,3.17
2023-01-10T12:54:28.184Z,2.60
2023-01-10T12:59:38.253Z,4.20
2023-01-10T13:04:41.321Z,2.60
2023-01-10T13:09:42.855Z,2.88
2023-01-10T13:14:48.556Z,2.53
2023-01-10T13:20:17.878Z,3.10
2023-01-10T13:25:27.622Z,3.25
2023-01-10T13:30:29.321Z,2.92
2023-01-10T13:35:38.588Z,3.88
2023-01-10T13:40:40.617Z,3.50
2023-01-10T13:45:43.115Z,3.85
2023-01-10T13:51:11.250Z,3.80
2023-01-10T13:56:50.983Z,3.78
2023-01-10T14:02:15.071Z,3.85
2023-01-10T14:07:30.771Z,3.42
2023-01-10T14:12:40.151Z,4.22
2023-01-10T14:17:41.642Z,4.28
2023-01-10T14:23:21.883Z,4.40
2023-01-10T14:28:30.416Z,4.85
2023-01-10T14:38:35.168Z,5.57
2023-01-10T14:43:54.544Z,5.00
2023-01-10T14:49:00.674Z,6.10
2023-01-10T14:54:03.911Z,5.20
2023-01-10T14:59:24.399Z,5.72
2023-01-10T15:04:27.480Z,5.57
2023-01-10T15:14:31.123Z,5.65
2023-01-10T15:19:37.227Z,5.05
2023-01-10T15:24:38.739Z,4.10
2023-01-10T15:29:44.814Z,4.35
2023-01-10T15:34:49.272Z,3.67
2023-01-10T15:39:50.757Z,3.65
2023-01-10T15:44:52.703Z,4.03
2023-01-10T15:49:54.398Z,3.78
2023-01-10T15:54:57.013Z,3.45
2023-01-10T15:59:58.973Z,3.72
2023-01-10T16:05:07.783Z,3.30
2023-01-10T16:10:22.214Z,3.70
2023-01-10T16:15:25.108Z,4.15
2023-01-10T16:20:41.119Z,4.00
2023-01-10T16:30:49.406Z,3.13
2023-01-10T16:35:52.678Z,4.32
2023-01-10T16:41:22.373Z,4.57
2023-01-10T16:46:23.883Z,3.78
2023-01-10T16:51:32.581Z,5.75
2023-01-10T16:56:34.199Z,3.53
2023-01-10T17:01:38.529Z,3.38
2023-01-10T17:06:41.243Z,4.63
2023-01-10T17:11:42.792Z,4.82
2023-01-10T17:16:44.327Z,4.93
2023-01-10T17:21:45.993Z,4.78
2023-01-10T17:26:47.477Z,3.72
2023-01-10T17:31:49.069Z,4.32
2023-01-10T17:36:50.563Z,4.82
2023-01-10T17:41:52.061Z,4.18
2023-01-10T17:46:56.827Z,4.50
2023-01-10T17:51:58.833Z,4.63
2023-01-10T17:57:00.899Z,5.45
2023-01-10T18:02:02.585Z,5.38
2023-01-10T18:07:04.169Z,4.47
2023-01-10T18:12:06.085Z,5.68
2023-01-10T18:17:09.383Z,4.00
2023-01-10T18:22:29.565Z,4.80
2023-01-10T18:27:31.077Z,4.45
2023-01-10T18:32:32.711Z,5.13
2023-01-10T18:37:34.519Z,4.53
2023-01-10T18:42:36.301Z,5.72
2023-01-10T18:47:37.802Z,5.00
2023-01-10T18:52:39.283Z,5.43
2023-01-10T18:57:40.777Z,4.78
2023-01-10T19:02:42.312Z,4.65
2023-01-10T19:07:43.846Z,4.95
2023-01-10T19:12:45.326Z,5.18
2023-01-10T19:17:46.799Z,4.25
2023-01-10T19:22:48.349Z,5.32
2023-01-10T19:27:49.855Z,4.65
2023-01-10T19:32:51.340Z,4.45
2023-01-10T19:37:53.063Z,4.47
2023-01-10T19:42:54.695Z,3.72
2023-01-10T19:47:56.188Z,4.32
2023-01-10T19:52:57.677Z,5.22
2023-01-10T19:57:59.543Z,4.85
2023-01-10T20:03:01.103Z,4.50
2023-01-10T20:08:04.888Z,4.60
2023-01-10T20:13:07.163Z,4.38
2023-01-10T20:18:09.377Z,4.78
2023-01-10T20:23:12.201Z,4.85
2023-01-10T20:28:13.777Z,3.85
2023-01-10T20:33:15.293Z,3.95
2023-01-10T20:38:16.755Z,4.32
2023-01-10T20:43:18.232Z,4.18
2023-01-10T20:48:19.993Z,3.47
2023-01-10T20:53:21.493Z,4.03
2023-01-10T20:58:22.977Z,4.03
2023-01-10T21:03:24.568Z,3.17
2023-01-10T21:08:26.338Z,2.65
2023-01-10T21:13:27.816Z,2.90
2023-01-10T21:18:34.369Z,3.55
2023-01-10T21:23:35.935Z,3.25
2023-01-10T21:28:42.361Z,2.25
2023-01-10T21:33:43.935Z,3.15
2023-01-10T21:38:45.406Z,2.50
2023-01-10T21:43:46.879Z,2.85
2023-01-10T21:48:48.356Z,2.45
2023-01-10T21:53:49.837Z,3.10
2023-01-10T21:58:52.239Z,2.67
2023-01-10T22:03:53.770Z,2.65
2023-01-10T22:08:55.384Z,3.33
2023-01-10T22:13:57.476Z,2.70
2023-01-10T22:18:59.019Z,2.92
2023-01-10T22:24:00.475Z,2.83
2023-01-10T22:29:01.943Z,3.28
2023-01-10T22:34:03.407Z,2.72
2023-01-10T22:39:06.803Z,2.42
2023-01-10T22:44:16.042Z,3.80
2023-01-10T22:49:17.595Z,4.03
2023-01-10T22:54:19.130Z,3.80
2023-01-10T22:59:20.620Z,3.92
2023-01-10T23:04:22.368Z,4.50
2023-01-10T23:09:23.901Z,5.18
2023-01-10T23:14:25.372Z,4.88
2023-01-10T23:19:26.844Z,5.18
2023-01-10T23:24:28.399Z,5.18
2023-01-10T23:29:29.865Z,5.43
2023-01-10T23:34:31.392Z,5.47
2023-01-10T23:39:32.902Z,6.50
2023-01-10T23:44:34.633Z,5.32
2023-01-10T23:49:36.098Z,5.63
2023-01-10T23:54:37.558Z,5.80
2023-01-10T23:59:39.031Z,5.15
